createdAt,value
2023-01-09T00:00:25.555Z,100
2023-01-09T00:05:23.929Z,100
2023-01-09T00:10:22.357Z,100
2023-01-09T00:15:20.885Z,100
2023-01-09T00:20:19.180Z,100
2023-01-09T00:25:17.725Z,100
2023-01-09T00:30:15.891Z,100
2023-01-09T00:35:14.239Z,100
2023-01-09T00:40:12.883Z,100
2023-01-09T00:45:11.520Z,100
2023-01-09T00:50:10.019Z,100
2023-01-09T00:55:08.671Z,100
2023-01-09T01:00:07.316Z,100
2023-01-09T01:05:06.012Z,100
2023-01-09T01:10:03.892Z,100
2023-01-09T01:15:02.697Z,100
2023-01-09T01:20:01.468Z,100
2023-01-09T01:24:40.725Z,100
2023-01-09T01:29:39.393Z,100
2023-01-09T01:34:37.906Z,100
2023-01-09T01:39:36.578Z,100
2023-01-09T01:44:35.232Z,100
2023-01-09T01:49:33.924Z,100
2023-01-09T01:54:32.304Z,100
2023-01-09T01:59:30.848Z,100
2023-01-09T02:04:29.348Z,100
2023-01-09T02:09:27.743Z,100
2023-01-09T02:14:26.208Z,100
2023-01-09T02:19:24.691Z,100
2023-01-09T02:24:23.176Z,100
2023-01-09T02:29:21.844Z,100
2023-01-09T02:34:20.327Z,100
2023-01-09T02:39:18.813Z,100
2023-01-09T02:44:17.362Z,100
2023-01-09T02:49:17.486Z,100
2023-01-09T02:54:15.430Z,100
2023-01-09T02:59:13.764Z,100
2023-01-09T03:04:11.972Z,100
2023-01-09T03:09:10.375Z,100
2023-01-09T03:14:08.805Z,100
2023-01-09T03:19:07.082Z,100
2023-01-09T03:24:05.689Z,100
2023-01-09T03:29:04.175Z,100
2023-01-09T03:34:02.679Z,100
2023-01-09T03:39:01.148Z,100
2023-01-09T03:43:59.842Z,100
2023-01-09T03:48:58.423Z,100
2023-01-09T03:53:56.742Z,100
2023-01-09T03:58:55.274Z,100
2023-01-09T04:03:53.674Z,100
2023-01-09T04:08:52.105Z,100
2023-01-09T04:13:50.601Z,100
2023-01-09T04:18:49.157Z,100
2023-01-09T04:23:47.662Z,100
2023-01-09T04:28:46.321Z,100
2023-01-09T04:33:44.797Z,100
2023-01-09T04:38:43.186Z,100
2023-01-09T04:43:41.513Z,100
2023-01-09T04:48:39.785Z,100
2023-01-09T04:53:38.147Z,100
2023-01-09T04:58:54.777Z,100
2023-01-09T05:04:05.572Z,100
2023-01-09T05:09:01.270Z,100
2023-01-09T05:13:59.820Z,100
2023-01-09T05:19:06.602Z,100
2023-01-09T05:24:03.270Z,100
2023-01-09T05:29:01.382Z,100
2023-01-09T05:33:59.764Z,100
2023-01-09T05:38:58.141Z,100
2023-01-09T05:43:56.582Z,100
2023-01-09T05:48:55.071Z,100
2023-01-09T05:53:53.668Z,100
2023-01-09T05:58:51.925Z,100
2023-01-09T06:03:50.451Z,100
2023-01-09T06:08:48.939Z,100
2023-01-09T06:13:47.543Z,100
2023-01-09T06:18:56.242Z,100
2023-01-09T06:24:01.548Z,100
2023-01-09T06:28:58.685Z,100
2023-01-09T06:33:57.400Z,100
2023-01-09T06:38:56.171Z,100
2023-01-09T06:43:55.331Z,100
2023-01-09T06:48:54.109Z,100
2023-01-09T06:53:52.988Z,100
2023-01-09T06:58:51.637Z,100
2023-01-09T07:03:58.711Z,100
2023-01-09T07:08:57.636Z,100
2023-01-09T07:14:00.718Z,100
2023-01-09T07:19:02.149Z,100
2023-01-09T07:24:01.890Z,100
2023-01-09T07:28:58.929Z,100
2023-01-09T07:33:54.098Z,100
2023-01-09T07:38:52.540Z,100
2023-01-09T07:43:50.135Z,100
2023-01-09T07:48:47.614Z,100
2023-01-09T07:53:46.045Z,100
2023-01-09T07:58:45.505Z,100
2023-01-09T08:03:55.868Z,100
2023-01-09T08:08:53.452Z,100
2023-01-09T08:13:53.944Z,63.3
2023-01-09T08:18:56.177Z,50.8
2023-01-09T08:23:56.231Z,45.7
2023-01-09T08:28:56.119Z,42.2
2023-01-09T08:33:53.513Z,42.3
2023-01-09T08:38:52.605Z,40.4
2023-01-09T08:43:50.883Z,41.4
2023-01-09T08:48:50.613Z,40.1
2023-01-09T08:53:49.989Z,37.2
2023-01-09T08:58:48.590Z,37.4
2023-01-09T09:03:46.696Z,37.8
2023-01-09T09:08:46.445Z,36.2
2023-01-09T09:13:44.749Z,37.3
2023-01-09T09:18:40.721Z,40.7
2023-01-09T09:23:35.198Z,47.4
2023-01-09T09:28:30.652Z,52.9
2023-01-09T09:33:27.601Z,55.9
2023-01-09T09:38:25.591Z,57.6
2023-01-09T09:43:23.904Z,56.5
2023-01-09T09:48:22.393Z,57.3
2023-01-09T09:53:21.316Z,55.5
2023-01-09T09:58:24.398Z,46.4
2023-01-09T10:03:33.800Z,39.4
2023-01-09T10:08:28.187Z,35.9
2023-01-09T10:13:27.201Z,33.4
2023-01-09T10:18:25.122Z,33.8
2023-01-09T10:23:22.016Z,36.4
2023-01-09T10:28:16.262Z,42.7
2023-01-09T10:33:12.001Z,46.4
2023-01-09T10:38:09.344Z,48.3
2023-01-09T10:43:08.676Z,45.8
2023-01-09T10:48:09.179Z,42.1
2023-01-09T10:53:08.639Z,40.6
2023-01-09T10:58:06.613Z,40.8
2023-01-09T11:03:04.250Z,42.5
2023-01-09T11:08:02.384Z,42.1
2023-01-09T11:13:02.610Z,37.5
2023-01-09T11:18:04.418Z,33.3
2023-01-09T11:23:04.162Z,32.9
2023-01-09T11:28:02.237Z,33.1
2023-01-09T11:32:59.266Z,34.9
2023-01-09T11:37:55.335Z,38
2023-01-09T11:42:51.995Z,40.8
2023-01-09T11:47:49.483Z,41.3
2023-01-09T11:52:47.537Z,42.5
2023-01-09T11:57:45.328Z,43.7
2023-01-09T12:02:42.946Z,44.8
2023-01-09T12:07:40.521Z,46.3
2023-01-09T12:12:38.544Z,46.7
2023-01-09T12:17:36.842Z,46.8
2023-01-09T12:22:35.194Z,47.3
2023-01-09T12:27:33.622Z,47.4
2023-01-09T12:32:32.086Z,47.3
2023-01-09T12:37:30.553Z,47.4
2023-01-09T12:42:28.794Z,47.8
2023-01-09T12:47:27.474Z,47.9
2023-01-09T12:52:25.668Z,48.3
2023-01-09T12:57:23.997Z,49.1
2023-01-09T13:02:22.211Z,49.4
2023-01-09T13:07:20.772Z,49.2
2023-01-09T13:12:19.041Z,49.9
2023-01-09T13:17:17.026Z,50.6
2023-01-09T13:22:15.556Z,50.6
2023-01-09T13:27:13.930Z,51
2023-01-09T13:32:12.338Z,52
2023-01-09T13:37:10.608Z,52.8
2023-01-09T13:42:08.574Z,53.5
2023-01-09T13:47:06.644Z,54
2023-01-09T13:52:04.600Z,54.9
2023-01-09T13:57:02.497Z,56.2
2023-01-09T14:02:00.385Z,58.1
2023-01-09T14:06:58.246Z,59.2
2023-01-09T14:11:56.351Z,60.4
2023-01-09T14:16:54.422Z,61.5
2023-01-09T14:21:52.699Z,62.3
2023-01-09T14:26:53.019Z,63.9
2023-01-09T14:31:49.242Z,64.9
2023-01-09T14:36:47.456Z,66.2
2023-01-09T14:41:45.503Z,67.2
2023-01-09T14:46:43.922Z,68
2023-01-09T14:51:42.202Z,68.6
2023-01-09T14:56:40.333Z,70.1
2023-01-09T15:01:38.521Z,71.2
2023-01-09T15:06:36.592Z,72.9
2023-01-09T15:11:34.878Z,74.8
2023-01-09T15:16:33.231Z,75.6
2023-01-09T15:21:31.725Z,77.3
2023-01-09T15:26:29.995Z,78.4
2023-01-09T15:31:28.378Z,80.1
2023-01-09T15:36:26.543Z,80.9
2023-01-09T15:41:25.034Z,82.2
2023-01-09T15:46:23.341Z,83.5
2023-01-09T15:51:21.731Z,84.3
2023-01-09T15:56:15.901Z,85.9
2023-01-09T16:01:14.549Z,85.1
2023-01-09T16:06:13.067Z,85.2
2023-01-09T16:11:11.460Z,85.2
2023-01-09T16:16:09.922Z,85.3
2023-01-09T16:21:08.273Z,85
2023-01-09T16:26:06.898Z,84.8
2023-01-09T16:31:05.532Z,84.9
2023-01-09T16:36:03.922Z,84.9
2023-01-09T16:41:02.168Z,84.2
2023-01-09T16:46:01.573Z,84.5
2023-01-09T16:50:59.582Z,85
2023-01-09T16:55:58.199Z,86
2023-01-09T17:00:56.765Z,89.8
2023-01-09T17:05:54.921Z,94.2
2023-01-09T17:10:53.159Z,100
2023-01-09T17:15:51.235Z,100
2023-01-09T17:20:49.493Z,100
2023-01-09T17:25:48.259Z,100
2023-01-09T17:30:46.719Z,100
2023-01-09T17:35:44.972Z,100
2023-01-09T17:40:43.361Z,100
2023-01-09T17:45:41.956Z,100
2023-01-09T17:50:40.332Z,100
2023-01-09T17:55:38.703Z,100
2023-01-09T18:00:37.216Z,100
2023-01-09T18:05:36.019Z,100
2023-01-09T18:10:34.127Z,100
2023-01-09T18:15:32.630Z,100
2023-01-09T18:20:31.317Z,100
2023-01-09T18:25:29.873Z,100
2023-01-09T18:30:28.289Z,100
2023-01-09T18:35:27.117Z,100
2023-01-09T18:40:25.515Z,100
2023-01-09T18:45:23.818Z,100
2023-01-09T18:50:22.211Z,100
2023-01-09T18:55:20.655Z,100
2023-01-09T19:00:19.211Z,100
2023-01-09T19:05:17.841Z,100
2023-01-09T19:10:16.331Z,100
2023-01-09T19:15:14.733Z,100
2023-01-09T19:20:13.345Z,100
2023-01-09T19:25:11.735Z,100
2023-01-09T19:30:10.379Z,100
2023-01-09T19:35:08.994Z,100
2023-01-09T19:40:07.392Z,100
2023-01-09T19:45:05.924Z,100
2023-01-09T19:50:05.332Z,100
2023-01-09T19:55:03.457Z,100
2023-01-09T20:00:01.775Z,100
2023-01-09T20:05:00.041Z,100
2023-01-09T20:09:59.746Z,100
2023-01-09T20:14:58.007Z,100
2023-01-09T20:19:56.305Z,100
2023-01-09T20:24:54.740Z,100
2023-01-09T20:29:53.052Z,100
2023-01-09T20:34:51.475Z,100
2023-01-09T20:44:52.507Z,100
2023-01-09T20:49:50.790Z,100
2023-01-09T20:54:49.267Z,100
2023-01-09T20:59:47.630Z,100
2023-01-09T21:04:46.131Z,100
2023-01-09T21:09:44.410Z,100
2023-01-09T21:14:42.820Z,100
2023-01-09T21:19:41.188Z,100
2023-01-09T21:24:39.588Z,100
2023-01-09T21:29:38.067Z,100
2023-01-09T21:34:36.545Z,100
2023-01-09T21:39:35.424Z,100
2023-01-09T21:44:34.247Z,100
2023-01-09T21:49:32.732Z,100
2023-01-09T21:54:31.236Z,100
2023-01-09T21:59:29.669Z,100
2023-01-09T22:04:28.264Z,100
2023-01-09T22:09:26.507Z,100
2023-01-09T22:14:24.817Z,100
2023-01-09T22:19:23.137Z,100
2023-01-09T22:24:33.501Z,100
2023-01-09T22:29:30.022Z,100
2023-01-09T22:34:28.357Z,100
2023-01-09T22:39:26.837Z,100
2023-01-09T22:44:25.231Z,100
2023-01-09T22:49:23.645Z,100
2023-01-09T22:54:22.043Z,100
2023-01-09T22:59:20.410Z,100
2023-01-09T23:04:18.765Z,100
2023-01-09T23:09:17.101Z,100
2023-01-09T23:14:15.382Z,100
2023-01-09T23:19:13.623Z,100
2023-01-09T23:24:11.929Z,100
2023-01-09T23:29:10.325Z,100
2023-01-09T23:34:08.785Z,100
2023-01-09T23:39:07.274Z,100
2023-01-09T23:44:05.669Z,100
2023-01-09T23:49:04.406Z,100
2023-01-09T23:54:02.697Z,100
2023-01-09T23:59:00.948Z,100
